Time;durP1;ratioP1;P1;durP2;ratioP2;P2;SDS_P1;SDS_P2;PMS_P1;PMS_P2;Temp;Humidity;BMP_temperature;BMP_pressure;BME280_temperature;BME280_humidity;BME280_pressure;Samples;Min_cycle;Max_cycle;Signal;HPM_P1;HPM_P2
2022/02/12 00:00:04;;;;;;;;;;;;;;;10.18;68.18;101565.50;5046161;27;104168;-48
2022/02/12 00:02:30;;;;;;;;;;;;;;;10.19;68.63;101567.16;5040489;27;102538;-49
2022/02/12 00:04:56;;;;;;;;;;;;;;;10.17;68.64;101581.00;5039635;27;102385;-48
2022/02/12 00:07:23;;;;;;;;;;;;;;;10.19;68.60;101576.13;5047472;27;103073;-49
2022/02/12 00:09:49;;;;;;;;;;;;;;;10.18;68.44;101570.94;5044321;27;104054;-49
2022/02/12 00:12:15;;;;;;;;;;;;;;;10.18;67.99;101565.50;5046318;27;102252;-59
2022/02/12 00:14:42;;;;;;;;;;;;;;;10.19;68.46;101573.41;5050909;27;102550;-49
2022/02/12 00:17:08;;;;;;;;;;;;;;;10.18;68.54;101565.50;5050673;27;102655;-49
2022/02/12 00:19:35;;;;;;;;;;;;;;;10.17;68.50;101564.69;5047456;27;104024;-49
2022/02/12 00:22:01;;;;;;;;;;;;;;;10.18;68.48;101570.94;5055051;27;102488;-49
2022/02/12 00:24:28;;;;;;;;;;;;;;;10.18;68.06;101571.78;5052743;27;102563;-49
2022/02/12 00:26:54;;;;;;;;;;;;;;;10.18;68.23;101566.34;5050801;27;102800;-49
2022/02/12 00:29:20;;;;;;;;;;;;;;;10.18;68.63;101560.88;5046037;27;103906;-49
2022/02/12 00:31:46;;;;;;;;;;;;;;;10.17;68.46;101559.25;5045091;27;102469;-49
2022/02/12 00:34:12;;;;;;;;;;;;;;;10.18;68.27;101549.19;5050094;27;101977;-49
2022/02/12 00:36:38;;;;;;;;;;;;;;;10.17;68.57;101559.25;5057258;27;102660;-49
2022/02/12 00:39:04;;;;;;;;;;;;;;;10.18;68.07;101554.63;5051125;27;104244;-49
2022/02/12 00:41:32;;;;;;;;;;;;;;;10.19;68.25;101550.84;5045541;27;102405;-49
2022/02/12 00:43:58;;;;;;;;;;;;;;;10.18;68.37;101558.16;5042877;27;102562;-50
2022/02/12 00:46:24;;;;;;;;;;;;;;;10.19;68.35;101550.84;5044585;27;102476;-50
2022/02/12 00:48:50;;;;;;;;;;;;;;;10.19;68.49;101545.38;5034320;27;103879;-49
2022/02/12 00:51:16;;;;;;;;;;;;;;;10.18;68.48;101544.56;5042022;27;101987;-49
2022/02/12 00:53:42;;;;;;;;;;;;;;;10.17;68.22;101540.22;5033959;27;102290;-49
2022/02/12 00:56:08;;;;;;;;;;;;;;;10.19;68.31;101546.22;5043603;27;102563;-49
2022/02/12 00:58:36;;;;;;;;;;;;;;;10.19;68.37;101546.22;5048880;27;103835;-49
2022/02/12 01:01:02;;;;;;;;;;;;;;;10.19;67.95;101546.22;5055732;27;102298;-50
2022/02/12 01:03:28;;;;;;;;;;;;;;;10.17;68.45;101537.50;5047002;27;102028;-49
2022/02/12 01:05:54;;;;;;;;;;;;;;;10.19;68.76;101550.84;5038523;27;102672;-50
2022/02/12 01:08:20;;;;;;;;;;;;;;;10.18;68.23;101547.28;5066047;27;103709;-49
2022/02/12 01:10:46;;;;;;;;;;;;;;;10.19;68.42;101548.94;5046300;27;102319;-48
2022/02/12 01:13:12;;;;;;;;;;;;;;;10.19;68.43;101539.94;5047598;27;102434;-49
2022/02/12 01:15:39;;;;;;;;;;;;;;;10.18;68.28;101549.19;5049586;27;102807;-48
2022/02/12 01:18:07;;;;;;;;;;;;;;;10.18;68.11;101544.56;5046529;27;104179;-49
2022/02/12 01:20:34;;;;;;;;;;;;;;;10.17;68.14;101553.81;5041492;27;103473;-49
2022/02/12 01:23:01;;;;;;;;;;;;;;;10.19;67.95;101548.94;5043581;27;102289;-49
2022/02/12 01:25:27;;;;;;;;;;;;;;;10.18;68.78;101550.00;5044878;27;102554;-49
2022/02/12 01:27:53;;;;;;;;;;;;;;;10.19;68.76;101556.28;5041529;27;103861;-49
2022/02/12 01:30:19;;;;;;;;;;;;;;;10.20;68.77;101545.13;5047117;27;102514;-49
2022/02/12 01:32:47;;;;;;;;;;;;;;;10.18;68.35;101550.00;5045215;27;102706;-49
2022/02/12 01:35:13;;;;;;;;;;;;;;;10.17;68.22;101548.38;5047131;27;102422;-49
2022/02/12 01:37:39;;;;;;;;;;;;;;;10.19;68.19;101548.09;5047929;27;103858;-49
2022/02/12 01:40:06;;;;;;;;;;;;;;;10.19;68.59;101545.38;5051471;27;102142;-49
2022/02/12 01:42:32;;;;;;;;;;;;;;;10.19;68.49;101543.50;5048255;27;102232;-49
2022/02/12 01:45:02;;;;;;;;;;;;;;;10.19;68.16;101545.38;5049224;27;102392;-49
2022/02/12 01:47:29;;;;;;;;;;;;;;;10.19;68.67;101550.84;5045921;27;103871;-49
2022/02/12 01:49:57;;;;;;;;;;;;;;;10.18;68.46;101555.44;5045209;27;102198;-49
2022/02/12 01:52:23;;;;;;;;;;;;;;;10.18;68.14;101560.88;5047968;27;102667;-49
2022/02/12 01:54:50;;;;;;;;;;;;;;;10.19;68.08;101550.84;5043506;27;102636;-48
2022/02/12 01:57:16;;;;;;;;;;;;;;;10.19;68.43;101561.72;5045492;27;103877;-49
2022/02/12 01:59:42;;;;;;;;;;;;;;;10.18;68.67;101555.44;5042261;27;102384;-48
2022/02/12 02:02:08;;;;;;;;;;;;;;;10.20;68.48;101547.84;5050846;27;102194;-48
2022/02/12 02:04:35;;;;;;;;;;;;;;;10.18;67.88;101547.28;5038324;27;102510;-49
2022/02/12 02:07:02;;;;;;;;;;;;;;;10.18;68.19;101539.13;5045038;27;103866;-49
2022/02/12 02:09:30;;;;;;;;;;;;;;;10.19;68.41;101542.66;5046022;27;102528;-49
2022/02/12 02:11:56;;;;;;;;;;;;;;;10.18;68.25;101539.13;5050437;27;103047;-49
2022/02/12 02:14:28;;;;;;;;;;;;;;;10.18;68.56;101539.13;5051079;27;102337;-49
2022/02/12 02:16:56;;;;;;;;;;;;;;;10.17;68.52;101537.50;5042673;27;103920;-49
2022/02/12 02:19:22;;;;;;;;;;;;;;;10.18;68.35;101541.84;5043858;27;102433;-49
2022/02/12 02:21:51;;;;;;;;;;;;;;;10.17;68.48;101542.94;5039488;27;102446;-49
2022/02/12 02:24:19;;;;;;;;;;;;;;;10.18;68.54;101544.56;5052904;27;102683;-49
2022/02/12 02:26:45;;;;;;;;;;;;;;;10.18;68.42;101544.56;5049238;27;103700;-48
2022/02/12 02:29:11;;;;;;;;;;;;;;;10.18;68.31;101555.44;5044685;27;102471;-48
2022/02/12 02:31:37;;;;;;;;;;;;;;;10.18;68.09;101555.44;5047703;27;102465;-49
2022/02/12 02:34:06;;;;;;;;;;;;;;;10.17;67.92;101553.81;5049936;27;102640;-49
2022/02/12 02:36:32;;;;;;;;;;;;;;;10.19;68.24;101556.28;5049766;27;104029;-49
2022/02/12 02:38:58;;;;;;;;;;;;;;;10.18;68.51;101550.00;5055093;27;102456;-49
2022/02/12 02:41:25;;;;;;;;;;;;;;;10.19;68.73;101557.09;5051757;27;104137;-50
2022/02/12 02:43:51;;;;;;;;;;;;;;;10.19;68.51;101546.22;5059598;27;102594;-50
2022/02/12 02:46:18;;;;;;;;;;;;;;;10.18;68.02;101549.19;5050262;27;103910;-49
2022/02/12 02:48:44;;;;;;;;;;;;;;;10.19;68.50;101546.22;5042983;27;102387;-49
2022/02/12 02:56:41;;;;;;;;;;;;;;;10.19;68.52;101529.06;5048950;27;107852;-49
2022/02/12 02:59:07;;;;;;;;;;;;;;;10.18;68.56;101533.69;5068458;27;102193;-49
2022/02/12 03:01:35;;;;;;;;;;;;;;;10.19;68.04;101519.00;5050091;27;103648;-48
2022/02/12 03:04:02;;;;;;;;;;;;;;;10.18;68.38;101522.00;5058205;27;102386;-49
2022/02/12 03:06:29;;;;;;;;;;;;;;;10.19;68.21;101519.00;5054510;27;104755;-49
2022/02/12 03:08:56;;;;;;;;;;;;;;;10.19;68.27;101532.59;5040611;27;103272;-49
2022/02/12 03:11:22;;;;;;;;;;;;;;;10.19;68.06;101534.50;5047519;27;102529;-49
2022/02/12 03:13:50;;;;;;;;;;;;;;;10.20;67.94;101541.59;5036826;27;102560;-49
2022/02/12 03:16:17;;;;;;;;;;;;;;;10.18;68.45;101538.31;5046957;27;103887;-49
2022/02/12 03:18:45;;;;;;;;;;;;;;;10.18;68.54;101541.84;5046188;27;102435;-49
2022/02/12 03:21:11;;;;;;;;;;;;;;;10.18;68.26;101547.28;5046885;27;102394;-49
2022/02/12 03:23:38;;;;;;;;;;;;;;;10.19;68.44;101551.66;5047262;27;102794;-49
2022/02/12 03:26:04;;;;;;;;;;;;;;;10.19;68.31;101573.41;5047137;27;104073;-49
2022/02/12 03:28:30;;;;;;;;;;;;;;;10.18;68.50;101571.78;5051455;27;102351;-52
2022/02/12 03:30:58;;;;;;;;;;;;;;;10.20;68.40;101571.50;5052114;27;102776;-49
2022/02/12 03:33:24;;;;;;;;;;;;;;;10.20;68.02;101574.22;5045011;27;102445;-50
2022/02/12 03:35:50;;;;;;;;;;;;;;;10.19;68.23;101567.97;5041688;27;103611;-49
2022/02/12 03:38:18;;;;;;;;;;;;;;;10.18;68.83;101566.34;5050959;27;102359;-48
2022/02/12 03:40:47;;;;;;;;;;;;;;;10.18;68.44;101566.34;5049535;27;102144;-49
2022/02/12 03:43:13;;;;;;;;;;;;;;;10.19;68.54;101567.97;5045386;27;102571;-49
2022/02/12 03:45:40;;;;;;;;;;;;;;;10.19;68.54;101562.53;5047188;27;103891;-49
2022/02/12 03:48:08;;;;;;;;;;;;;;;10.18;68.23;101569.06;5050437;27;102396;-48
2022/02/12 03:50:35;;;;;;;;;;;;;;;10.18;68.17;101571.78;5043687;27;102290;-49
2022/02/12 03:53:03;;;;;;;;;;;;;;;10.20;68.11;101579.66;5049553;27;102329;-49
2022/02/12 03:55:29;;;;;;;;;;;;;;;10.19;68.68;101594.34;5046923;27;103973;-49
2022/02/12 03:57:55;;;;;;;;;;;;;;;10.19;68.53;101597.91;5051012;27;102196;-48
2022/02/12 04:00:21;;;;;;;;;;;;;;;10.19;68.41;101599.78;5047726;27;102471;-49
2022/02/12 04:02:48;;;;;;;;;;;;;;;10.19;68.21;101599.78;5041572;27;102205;-49
2022/02/12 04:05:16;;;;;;;;;;;;;;;10.17;68.27;101594.63;5041883;27;103950;-49
2022/02/12 04:07:42;;;;;;;;;;;;;;;10.19;68.44;101616.94;5034733;27;102397;-49
2022/02/12 04:10:09;;;;;;;;;;;;;;;10.20;68.32;101615.84;5046982;27;102594;-49
2022/02/12 04:12:35;;;;;;;;;;;;;;;10.19;68.57;101610.69;5050198;27;101834;-49
2022/02/12 04:15:02;;;;;;;;;;;;;;;10.19;68.77;101611.50;5047744;27;104068;-48
2022/02/12 04:17:34;;;;;;;;;;;;;;;10.18;68.29;101620.72;5060994;27;102431;-49
2022/02/12 04:20:02;;;;;;;;;;;;;;;10.18;68.68;101620.72;5054071;27;102429;-49
2022/02/12 04:22:30;;;;;;;;;;;;;;;10.17;68.52;101627.25;5048022;27;102179;-49
2022/02/12 04:24:56;;;;;;;;;;;;;;;10.17;68.23;101623.69;5056011;27;103721;-49
2022/02/12 04:27:22;;;;;;;;;;;;;;;10.18;68.21;101634.34;5046474;27;104960;-50
2022/02/12 04:29:48;;;;;;;;;;;;;;;10.18;68.26;101636.25;5043267;27;102818;-49
2022/02/12 04:32:14;;;;;;;;;;;;;;;10.17;68.51;101635.41;5048569;27;102388;-49
2022/02/12 04:34:40;;;;;;;;;;;;;;;10.17;68.03;101640.84;5048866;27;104054;-49
2022/02/12 04:37:06;;;;;;;;;;;;;;;10.17;68.32;101638.13;5048300;27;102375;-49
2022/02/12 04:39:34;;;;;;;;;;;;;;;10.17;68.52;101642.72;5057075;27;102195;-49
2022/02/12 04:42:01;;;;;;;;;;;;;;;10.17;67.99;101646.28;5050953;27;102467;-50
2022/02/12 04:44:26;;;;;;;;;;;;;;;10.17;68.27;101653.59;5045976;27;104994;-49
2022/02/12 04:46:52;;;;;;;;;;;;;;;10.17;68.34;101662.63;5050212;27;102230;-49
2022/02/12 04:49:22;;;;;;;;;;;;;;;10.17;68.68;101676.22;5040947;27;102666;-49
2022/02/12 04:51:48;;;;;;;;;;;;;;;10.17;68.66;101684.38;5049479;27;102214;-50
2022/02/12 04:54:14;;;;;;;;;;;;;;;10.16;68.29;101690.03;5045573;27;103411;-48
2022/02/12 04:56:42;;;;;;;;;;;;;;;10.16;68.10;101688.16;5049592;27;102492;-49
2022/02/12 04:59:09;;;;;;;;;;;;;;;10.17;68.73;101700.69;5048300;27;102660;-48
2022/02/12 05:01:35;;;;;;;;;;;;;;;10.17;68.50;101705.28;5048718;27;102294;-49
2022/02/12 05:04:01;;;;;;;;;;;;;;;10.16;68.59;101704.47;5046972;27;103730;-49
2022/02/12 05:06:27;;;;;;;;;;;;;;;10.16;68.04;101718.06;5040775;27;102363;-49
2022/02/12 05:08:53;;;;;;;;;;;;;;;10.16;68.53;101720.78;5041052;27;102437;-49
2022/02/12 05:11:19;;;;;;;;;;;;;;;10.17;68.25;101732.50;5045288;27;102107;-50
2022/02/12 05:13:47;;;;;;;;;;;;;;;10.16;68.16;101737.09;5050673;27;103870;-49
2022/02/12 05:16:14;;;;;;;;;;;;;;;10.15;68.20;101727.31;5038874;27;102666;-48
2022/02/12 05:18:40;;;;;;;;;;;;;;;10.16;68.43;101737.09;5043993;27;102292;-49
2022/02/12 05:21:06;;;;;;;;;;;;;;;10.15;68.58;101732.75;5047953;27;102489;-49
2022/02/12 05:23:32;;;;;;;;;;;;;;;10.15;68.19;101730.03;5031155;27;104012;-49
2022/02/12 05:25:58;;;;;;;;;;;;;;;10.15;68.53;101740.91;5046747;27;102274;-49
2022/02/12 05:28:24;;;;;;;;;;;;;;;10.15;68.72;101740.91;5049899;27;102324;-49
2022/02/12 05:30:51;;;;;;;;;;;;;;;10.15;68.22;101727.31;5039146;27;102623;-49
2022/02/12 05:33:17;;;;;;;;;;;;;;;10.16;68.03;101741.72;5042100;27;104026;-49
2022/02/12 05:35:44;;;;;;;;;;;;;;;10.15;68.36;101749.06;5041747;27;102939;-49
2022/02/12 05:38:09;;;;;;;;;;;;;;;10.15;68.22;101749.06;5049194;27;102514;-49
2022/02/12 05:40:35;;;;;;;;;;;;;;;10.15;68.06;101757.22;5037626;27;102623;-49
2022/02/12 05:43:02;;;;;;;;;;;;;;;10.15;68.16;101757.22;5041195;27;104171;-49
2022/02/12 05:45:28;;;;;;;;;;;;;;;10.14;68.65;101761.03;5040123;27;102339;-49
2022/02/12 05:47:56;;;;;;;;;;;;;;;10.14;68.68;101755.59;5038236;27;102162;-48
2022/02/12 05:50:27;;;;;;;;;;;;;;;10.15;68.30;101767.28;5044889;27;102682;-50
2022/02/12 05:52:58;;;;;;;;;;;;;;;10.14;68.45;101763.75;5029760;27;104071;-48
2022/02/12 05:55:25;;;;;;;;;;;;;;;10.14;68.13;101768.38;5041828;27;106410;-48
2022/02/12 05:57:56;;;;;;;;;;;;;;;10.15;68.66;101780.88;5044645;27;102316;-48
2022/02/12 06:00:22;;;;;;;;;;;;;;;10.14;68.36;101782.78;5038417;27;102287;-49
2022/02/12 06:02:48;;;;;;;;;;;;;;;10.14;68.19;101784.69;5046497;27;103902;-49
2022/02/12 06:05:15;;;;;;;;;;;;;;;10.14;68.08;101793.66;5040453;27;102497;-49
2022/02/12 06:07:42;;;;;;;;;;;;;;;10.15;68.47;101800.75;5034469;27;102246;-50
2022/02/12 06:10:08;;;;;;;;;;;;;;;10.14;68.24;101810.00;5052735;27;102227;-49
2022/02/12 06:12:36;;;;;;;;;;;;;;;10.14;68.59;101820.03;5045730;27;103086;-50
2022/02/12 06:15:02;;;;;;;;;;;;;;;10.14;68.29;101820.03;5043391;27;102801;-48
2022/02/12 06:17:28;;;;;;;;;;;;;;;10.15;68.25;101827.13;5044020;27;102682;-48
2022/02/12 06:19:54;;;;;;;;;;;;;;;10.14;68.83;101826.31;5045599;27;102291;-50
2022/02/12 06:22:26;;;;;;;;;;;;;;;10.14;68.20;101839.09;5044653;27;103729;-49
2022/02/12 06:24:52;;;;;;;;;;;;;;;10.14;68.44;101836.38;5044764;27;102295;-49
2022/02/12 06:27:18;;;;;;;;;;;;;;;10.14;68.07;101837.19;5049036;27;102483;-49
2022/02/12 06:29:44;;;;;;;;;;;;;;;10.14;68.18;101826.31;5047155;27;102249;-49
2022/02/12 06:32:11;;;;;;;;;;;;;;;10.14;68.75;101842.63;5044318;27;103770;-49
2022/02/12 06:34:37;;;;;;;;;;;;;;;10.14;68.31;101848.06;5045273;27;102364;-49
2022/02/12 06:37:03;;;;;;;;;;;;;;;10.14;68.23;101848.06;5036623;27;102305;-50
2022/02/12 06:39:31;;;;;;;;;;;;;;;10.13;68.13;101857.28;5049415;27;102223;-49
2022/02/12 06:41:57;;;;;;;;;;;;;;;10.13;68.52;101876.31;5039887;27;104023;-49
2022/02/12 06:44:23;;;;;;;;;;;;;;;10.13;68.55;101879.03;5044824;27;102603;-49
2022/02/12 06:46:49;;;;;;;;;;;;;;;10.14;68.63;101890.78;5045230;27;102664;-49
2022/02/12 06:49:15;;;;;;;;;;;;;;;10.14;68.49;101886.16;5045269;27;102676;-49
2022/02/12 06:51:44;;;;;;;;;;;;;;;10.14;68.25;101885.34;5032500;27;105545;-49
2022/02/12 06:54:10;;;;;;;;;;;;;;;10.14;68.70;101890.78;5036954;27;102605;-49
2022/02/12 06:56:38;;;;;;;;;;;;;;;10.14;68.35;101904.38;5037048;27;104184;-49
2022/02/12 06:59:04;;;;;;;;;;;;;;;10.14;68.59;101901.66;5047684;27;102938;-49
2022/02/12 07:01:30;;;;;;;;;;;;;;;10.13;68.22;101914.41;5046495;27;103876;-50
2022/02/12 07:04:05;;;;;;;;;;;;;;;10.12;68.43;101915.47;5043214;27;102882;-49
2022/02/12 07:06:32;;;;;;;;;;;;;;;10.12;68.21;101918.19;5044179;27;102567;-48
2022/02/12 07:08:59;;;;;;;;;;;;;;;10.12;67.95;101920.91;5043818;27;102773;-49
2022/02/12 07:11:25;;;;;;;;;;;;;;;10.12;68.28;101926.34;5040623;27;103832;-49
2022/02/12 07:13:53;;;;;;;;;;;;;;;10.12;68.57;101931.78;5041619;27;102557;-49
2022/02/12 07:16:19;;;;;;;;;;;;;;;10.12;68.75;101942.69;5045526;27;102601;-49
2022/02/12 07:18:45;;;;;;;;;;;;;;;10.11;68.42;101958.19;5051139;27;102421;-49
2022/02/12 07:21:11;;;;;;;;;;;;;;;10.11;68.46;101958.19;5045370;27;103874;-49
2022/02/12 07:23:37;;;;;;;;;;;;;;;10.11;68.72;101970.94;5040384;27;102406;-49
2022/02/12 07:26:03;;;;;;;;;;;;;;;10.10;68.50;101977.47;5041937;27;102553;-48
2022/02/12 07:28:30;;;;;;;;;;;;;;;10.11;68.45;101990.00;5055868;27;102195;-48
2022/02/12 07:30:58;;;;;;;;;;;;;;;10.10;68.43;101986.44;5043142;27;104064;-49
2022/02/12 07:33:26;;;;;;;;;;;;;;;10.11;68.51;101995.44;5043235;27;102679;-49
2022/02/12 07:35:52;;;;;;;;;;;;;;;10.10;68.27;101989.16;5049915;27;102606;-49
2022/02/12 07:38:18;;;;;;;;;;;;;;;10.10;68.13;102001.94;5047157;27;102869;-49
2022/02/12 07:40:44;;;;;;;;;;;;;;;10.10;68.05;102004.66;5044729;27;103767;-48
2022/02/12 07:43:10;;;;;;;;;;;;;;;10.09;68.53;102005.72;5047452;27;102504;-48
2022/02/12 07:45:36;;;;;;;;;;;;;;;10.09;68.48;101994.81;5055188;27;102213;-49
2022/02/12 07:48:04;;;;;;;;;;;;;;;10.09;68.44;101997.56;5045097;27;102880;-49
2022/02/12 07:50:30;;;;;;;;;;;;;;;10.09;68.24;102003.00;5041426;27;103683;-49
2022/02/12 07:52:56;;;;;;;;;;;;;;;10.09;68.24;102003.00;5051776;27;102141;-48
2022/02/12 07:55:22;;;;;;;;;;;;;;;10.09;68.32;102003.81;5046375;27;102615;-49
2022/02/12 07:57:48;;;;;;;;;;;;;;;10.09;68.57;102011.16;5036130;27;102687;-49
2022/02/12 08:00:15;;;;;;;;;;;;;;;10.09;68.49;102008.44;5042657;27;104064;-50
2022/02/12 08:02:42;;;;;;;;;;;;;;;10.08;68.47;102012.22;5045356;27;102190;-48
2022/02/12 08:05:10;;;;;;;;;;;;;;;10.07;68.21;102005.13;5042106;27;102168;-49
2022/02/12 08:07:42;;;;;;;;;;;;;;;10.08;68.25;102017.66;5037264;27;103171;-49
2022/02/12 08:12:54;;;;;;;;;;;;;;;10.08;68.35;102023.09;5038737;27;102366;-49
2022/02/12 08:15:21;;;;;;;;;;;;;;;10.07;68.10;102029.63;5044062;27;102654;-49
2022/02/12 08:17:49;;;;;;;;;;;;;;;10.07;68.09;102037.78;5034033;27;102479;-49
2022/02/12 08:20:16;;;;;;;;;;;;;;;10.07;68.34;102040.50;5045566;27;103631;-49
2022/02/12 08:22:43;;;;;;;;;;;;;;;10.06;68.38;102036.94;5044276;27;102714;-49
2022/02/12 08:25:09;;;;;;;;;;;;;;;10.05;68.41;102039.88;5038946;27;102694;-50
2022/02/12 08:27:35;;;;;;;;;;;;;;;10.05;68.00;102048.03;5045229;27;102711;-49
2022/02/12 08:30:02;;;;;;;;;;;;;;;10.06;68.28;102058.72;5032746;27;103899;-49
2022/02/12 08:32:29;;;;;;;;;;;;;;;10.05;68.41;102067.09;5033059;27;102503;-49
2022/02/12 08:34:55;;;;;;;;;;;;;;;10.06;68.43;102066.00;5037559;27;102383;-49
2022/02/12 08:37:23;;;;;;;;;;;;;;;10.05;68.38;102073.34;5043862;27;102382;-49
2022/02/12 08:39:49;;;;;;;;;;;;;;;10.04;68.39;102071.69;5052948;27;103973;-49
2022/02/12 08:42:16;;;;;;;;;;;;;;;10.06;68.08;102082.34;5047957;27;102414;-49
2022/02/12 08:44:42;;;;;;;;;;;;;;;10.04;67.84;102088.03;5050087;27;102354;-49
2022/02/12 08:47:11;;;;;;;;;;;;;;;10.05;68.30;102103.28;5056276;27;102472;-50
2022/02/12 08:49:38;;;;;;;;;;;;;;;10.05;68.53;102094.28;5059957;27;103982;-49
2022/02/12 08:52:05;;;;;;;;;;;;;;;10.05;68.03;102102.44;5043336;27;102479;-49
2022/02/12 08:54:34;;;;;;;;;;;;;;;10.04;68.29;102111.69;5051264;27;102469;-49
2022/02/12 08:57:01;;;;;;;;;;;;;;;10.04;68.29;102119.84;5058295;27;102436;-49
2022/02/12 08:59:29;;;;;;;;;;;;;;;10.04;68.05;102126.09;5038945;27;104039;-49
2022/02/12 09:01:55;;;;;;;;;;;;;;;10.03;68.14;102132.63;5048647;27;102506;-49
2022/02/12 09:04:21;;;;;;;;;;;;;;;10.04;68.40;102139.69;5047787;27;102298;-49
2022/02/12 09:06:47;;;;;;;;;;;;;;;10.04;68.43;102142.41;5034297;27;105669;-49
2022/02/12 09:09:13;;;;;;;;;;;;;;;10.04;68.03;102141.59;5039978;27;104213;-49
2022/02/12 09:11:41;;;;;;;;;;;;;;;10.04;68.03;102141.59;5040365;27;102609;-49
2022/02/12 09:14:08;;;;;;;;;;;;;;;10.03;68.05;102139.94;5045625;27;102062;-49
2022/02/12 09:16:35;;;;;;;;;;;;;;;10.04;68.35;102125.28;5039201;27;102403;-49
2022/02/12 09:19:01;;;;;;;;;;;;;;;10.04;67.96;102130.72;5038314;27;103852;-49
2022/02/12 09:21:27;;;;;;;;;;;;;;;10.05;68.10;102132.38;5044686;27;102250;-49
2022/02/12 09:23:53;;;;;;;;;;;;;;;10.04;68.01;102125.28;5037986;27;102895;-49
2022/02/12 09:26:30;;;;;;;;;;;;;;;10.05;68.41;102132.38;5045148;27;102762;-49
2022/02/12 09:29:01;;;;;;;;;;;;;;;10.04;68.13;102130.72;5042972;27;103900;-49
2022/02/12 09:31:29;;;;;;;;;;;;;;;10.05;68.34;102126.94;5042903;27;102709;-49
2022/02/12 09:33:55;;;;;;;;;;;;;;;10.04;67.97;102126.09;5037652;27;102485;-49
2022/02/12 09:36:23;;;;;;;;;;;;;;;10.05;68.34;102127.75;5049121;27;102471;-49
2022/02/12 09:38:50;;;;;;;;;;;;;;;10.06;68.48;102134.00;5038871;27;103635;-49
2022/02/12 09:41:16;;;;;;;;;;;;;;;10.07;68.26;102154.75;5038885;27;102893;-49
2022/02/12 09:43:43;;;;;;;;;;;;;;;10.06;68.30;102142.19;5038224;27;102178;-49
2022/02/12 09:46:23;;;;;;;;;;;;;;;10.06;68.34;102150.34;5033763;27;102837;-49
2022/02/12 09:48:50;;;;;;;;;;;;;;;10.06;68.24;102150.34;5037894;27;103788;-49
2022/02/12 09:51:18;;;;;;;;;;;;;;;10.06;68.08;102156.63;5048616;27;103392;-50
2022/02/12 09:53:44;;;;;;;;;;;;;;;10.06;68.41;102172.94;5047900;27;102417;-49
2022/02/12 09:56:10;;;;;;;;;;;;;;;10.08;68.42;102170.00;5063925;27;102161;-49
2022/02/12 09:58:37;;;;;;;;;;;;;;;10.07;67.80;102173.78;5039979;27;103972;-49
2022/02/12 10:01:03;;;;;;;;;;;;;;;10.07;67.72;102168.34;5036873;27;102457;-49
2022/02/12 10:03:31;;;;;;;;;;;;;;;10.08;67.95;102175.44;5047905;27;102734;-49
2022/02/12 10:05:57;;;;;;;;;;;;;;;10.06;68.28;102172.94;5040088;27;102968;-49
2022/02/12 10:08:23;;;;;;;;;;;;;;;10.07;68.21;102176.50;5043705;27;103831;-49
2022/02/12 10:10:51;;;;;;;;;;;;;;;10.07;67.75;102179.22;5042779;27;102195;-48
2022/02/12 10:13:19;;;;;;;;;;;;;;;10.08;67.96;102175.44;5037845;27;102475;-48
2022/02/12 10:15:46;;;;;;;;;;;;;;;10.06;67.72;102172.94;5049135;27;102741;-49
2022/02/12 10:18:12;;;;;;;;;;;;;;;10.07;68.39;102179.22;5045516;27;103971;-49
2022/02/12 10:20:41;;;;;;;;;;;;;;;10.07;68.29;102168.34;5042039;27;102230;-48
2022/02/12 10:23:09;;;;;;;;;;;;;;;10.07;68.02;102173.78;5036598;27;102754;-49
2022/02/12 10:25:36;;;;;;;;;;;;;;;10.05;67.97;102181.31;5041963;27;102528;-49
2022/02/12 10:28:03;;;;;;;;;;;;;;;10.06;67.99;102193.84;5046936;27;102964;-49
2022/02/12 10:30:29;;;;;;;;;;;;;;;10.05;68.24;102190.31;5043661;27;102239;-49
2022/02/12 10:32:57;;;;;;;;;;;;;;;10.05;67.77;102187.59;5059385;27;103429;-49
2022/02/12 10:35:23;;;;;;;;;;;;;;;10.05;68.17;102192.22;5052640;27;102283;-49
2022/02/12 10:37:51;;;;;;;;;;;;;;;10.05;67.86;102182.16;5057206;27;103556;-49
2022/02/12 10:40:17;;;;;;;;;;;;;;;10.03;67.64;102189.72;5044334;27;102260;-49
2022/02/12 10:42:46;;;;;;;;;;;;;;;10.04;67.83;102198.72;5044582;27;102539;-49
2022/02/12 10:45:14;;;;;;;;;;;;;;;10.04;68.18;102201.44;5037137;27;102908;-50
2022/02/12 10:47:40;;;;;;;;;;;;;;;10.03;68.18;102205.22;5051693;27;103872;-49
2022/02/12 10:50:07;;;;;;;;;;;;;;;10.03;68.14;102213.38;5046599;27;102187;-49
2022/02/12 10:52:38;;;;;;;;;;;;;;;10.03;67.78;102216.94;5035011;27;103249;-49
2022/02/12 10:55:07;;;;;;;;;;;;;;;10.03;67.77;102233.25;5033965;27;103778;-49
2022/02/12 10:57:38;;;;;;;;;;;;;;;10.03;67.79;102218.81;5049503;27;103953;-50
2022/02/12 11:00:05;;;;;;;;;;;;;;;10.02;68.08;102241.63;5050688;27;102522;-49
2022/02/12 11:02:33;;;;;;;;;;;;;;;10.02;67.74;102237.00;5050246;27;102276;-49
2022/02/12 11:04:59;;;;;;;;;;;;;;;10.02;67.88;102247.88;5037994;27;102511;-49
2022/02/12 11:07:25;;;;;;;;;;;;;;;10.01;68.29;102262.56;5044871;27;103876;-49
2022/02/12 11:09:52;;;;;;;;;;;;;;;10.02;67.55;102257.94;5049296;27;102654;-49
2022/02/12 11:12:22;;;;;;;;;;;;;;;10.02;68.31;102263.38;5040805;27;102306;-50
2022/02/12 11:14:48;;;;;;;;;;;;;;;10.02;68.09;102257.94;5052120;27;103635;-49
2022/02/12 11:17:16;;;;;;;;;;;;;;;10.02;67.57;102263.38;5050146;27;103671;-50
2022/02/12 11:19:44;;;;;;;;;;;;;;;10.02;67.90;102266.09;5051449;27;102210;-49
2022/02/12 11:22:10;;;;;;;;;;;;;;;10.01;67.75;102278.88;5050116;27;102713;-52
2022/02/12 11:24:37;;;;;;;;;;;;;;;10.02;67.68;102279.69;5051380;27;102257;-50
2022/02/12 11:27:18;;;;;;;;;;;;;;;10.03;67.62;102289.53;5048349;27;103921;-50
2022/02/12 11:29:46;;;;;;;;;;;;;;;10.01;67.76;102283.50;5040044;27;103182;-49
2022/02/12 11:32:13;;;;;;;;;;;;;;;10.01;68.17;102297.09;5042463;27;102390;-49
2022/02/12 11:34:41;;;;;;;;;;;;;;;10.00;67.67;102287.28;5051009;27;102194;-50
2022/02/12 11:37:14;;;;;;;;;;;;;;;10.01;68.02;102305.25;5057463;27;103955;-49
2022/02/12 11:39:40;;;;;;;;;;;;;;;10.00;67.72;102309.88;5048629;27;102527;-49
2022/02/12 11:42:10;;;;;;;;;;;;;;;10.00;67.83;102315.31;5042247;27;102657;-49
2022/02/12 11:44:43;;;;;;;;;;;;;;;10.00;67.99;102317.19;5042307;27;102265;-49
2022/02/12 11:47:11;;;;;;;;;;;;;;;10.01;67.44;102310.69;5045754;27;104614;-49
2022/02/12 11:49:38;;;;;;;;;;;;;;;10.00;67.67;102309.03;5037175;27;103551;-49
2022/02/12 11:52:06;;;;;;;;;;;;;;;10.00;67.87;102315.31;5046650;27;102028;-49
2022/02/12 11:54:49;;;;;;;;;;;;;;;9.99;67.52;102319.09;5047111;27;102338;-49
2022/02/12 11:57:16;;;;;;;;;;;;;;;10.00;67.92;102319.91;5046387;27;102970;-49
2022/02/12 11:59:42;;;;;;;;;;;;;;;10.00;67.60;102339.78;5048652;27;105332;-49
2022/02/12 12:02:08;;;;;;;;;;;;;;;10.00;67.50;102322.63;5044266;27;102068;-49
2022/02/12 12:04:39;;;;;;;;;;;;;;;9.98;67.56;102333.72;5046305;27;102613;-49
2022/02/12 12:07:14;;;;;;;;;;;;;;;9.99;68.08;102345.44;5035680;27;103787;-49
2022/02/12 12:10:01;;;;;;;;;;;;;;;9.98;67.40;102349.22;5038408;27;102652;-49
2022/02/12 12:12:27;;;;;;;;;;;;;;;10.00;67.45;102349.84;5038854;27;102752;-47
2022/02/12 12:15:08;;;;;;;;;;;;;;;9.99;67.90;102349.00;5045072;27;102313;-48
2022/02/12 12:17:35;;;;;;;;;;;;;;;9.97;66.73;102353.84;5040546;27;104075;-48
2022/02/12 12:20:03;;;;;;;;;;;;;;;9.91;66.84;102352.00;5034261;27;102454;-49
2022/02/12 12:22:30;;;;;;;;;;;;;;;9.89;66.11;102361.47;5042208;27;102749;-49
2022/02/12 12:24:58;;;;;;;;;;;;;;;9.84;66.37;102357.56;5040066;27;102559;-48
2022/02/12 12:27:24;;;;;;;;;;;;;;;9.80;66.08;102350.88;5033268;27;103961;-49
2022/02/12 12:32:34;;;;;;;;;;;;;;;9.77;65.68;102361.38;5048848;27;103564;-48
2022/02/12 12:35:03;;;;;;;;;;;;;;;9.76;65.88;102379.59;5043110;27;102759;-49
2022/02/12 12:37:32;;;;;;;;;;;;;;;9.76;66.01;102376.03;5039233;27;104017;-49